sensor_id;sensor_type;location;lat;lon;timestamp;P1;durP1;ratioP1;P2;durP2;ratioP2
55609;SDS011;41486;52.502;13.486;2023-06-26T00:00:00;8.15;;;5.65;;
55609;SDS011;41486;52.502;13.486;2023-06-26T00:02:31;6.68;;;4.82;;
55609;SDS011;41486;52.502;13.486;2023-06-26T00:05:01;8.18;;;5.20;;
55609;SDS011;41486;52.502;13.486;2023-06-26T00:07:31;6.13;;;4.93;;
55609;SDS011;41486;52.502;13.486;2023-06-26T00:10:00;6.38;;;5.22;;
55609;SDS011;41486;52.502;13.486;2023-06-26T00:12:31;6.70;;;4.85;;
55609;SDS011;41486;52.502;13.486;2023-06-26T00:15:00;8.32;;;5.20;;
55609;SDS011;41486;52.502;13.486;2023-06-26T00:17:30;6.55;;;5.60;;
55609;SDS011;41486;52.502;13.486;2023-06-26T00:20:08;6.70;;;5.55;;
55609;SDS011;41486;52.502;13.486;2023-06-26T00:22:43;7.10;;;5.65;;
55609;SDS011;41486;52.502;13.486;2023-06-26T00:25:11;8.50;;;6.38;;
55609;SDS011;41486;52.502;13.486;2023-06-26T00:27:39;7.50;;;5.72;;
55609;SDS011;41486;52.502;13.486;2023-06-26T00:30:08;7.03;;;5.93;;
55609;SDS011;41486;52.502;13.486;2023-06-26T00:32:37;9.20;;;5.72;;
55609;SDS011;41486;52.502;13.486;2023-06-26T00:35:07;9.60;;;5.35;;
55609;SDS011;41486;52.502;13.486;2023-06-26T00:37:36;7.50;;;5.60;;
55609;SDS011;41486;52.502;13.486;2023-06-26T00:40:04;7.50;;;5.50;;
55609;SDS011;41486;52.502;13.486;2023-06-26T00:42:33;8.57;;;6.13;;
55609;SDS011;41486;52.502;13.486;2023-06-26T00:45:01;7.82;;;5.80;;
55609;SDS011;41486;52.502;13.486;2023-06-26T00:47:30;7.18;;;5.90;;
55609;SDS011;41486;52.502;13.486;2023-06-26T00:49:58;6.95;;;5.63;;
55609;SDS011;41486;52.502;13.486;2023-06-26T00:52:28;7.18;;;6.38;;
55609;SDS011;41486;52.502;13.486;2023-06-26T00:54:58;8.68;;;6.05;;
55609;SDS011;41486;52.502;13.486;2023-06-26T00:57:27;9.20;;;5.90;;
55609;SDS011;41486;52.502;13.486;2023-06-26T00:59:55;6.10;;;5.15;;
55609;SDS011;41486;52.502;13.486;2023-06-26T01:02:24;11.18;;;6.82;;
55609;SDS011;41486;52.502;13.486;2023-06-26T01:04:53;7.45;;;5.72;;
55609;SDS011;41486;52.502;13.486;2023-06-26T01:07:21;9.57;;;7.05;;
55609;SDS011;41486;52.502;13.486;2023-06-26T01:09:52;6.85;;;5.22;;
55609;SDS011;41486;52.502;13.486;2023-06-26T01:12:20;10.18;;;6.28;;
55609;SDS011;41486;52.502;13.486;2023-06-26T01:14:48;7.57;;;5.82;;
55609;SDS011;41486;52.502;13.486;2023-06-26T01:17:16;7.78;;;5.63;;
55609;SDS011;41486;52.502;13.486;2023-06-26T01:19:45;9.05;;;6.60;;
55609;SDS011;41486;52.502;13.486;2023-06-26T01:22:17;8.82;;;6.60;;
55609;SDS011;41486;52.502;13.486;2023-06-26T01:24:56;7.57;;;5.60;;
55609;SDS011;41486;52.502;13.486;2023-06-26T01:27:38;7.90;;;6.47;;
55609;SDS011;41486;52.502;13.486;2023-06-26T01:30:07;8.52;;;6.30;;
55609;SDS011;41486;52.502;13.486;2023-06-26T01:32:36;8.82;;;6.78;;
55609;SDS011;41486;52.502;13.486;2023-06-26T01:35:06;8.18;;;6.60;;
55609;SDS011;41486;52.502;13.486;2023-06-26T01:37:36;7.35;;;6.28;;
55609;SDS011;41486;52.502;13.486;2023-06-26T01:40:04;6.82;;;5.80;;
55609;SDS011;41486;52.502;13.486;2023-06-26T01:42:33;8.07;;;6.32;;
55609;SDS011;41486;52.502;13.486;2023-06-26T01:45:04;9.18;;;6.78;;
55609;SDS011;41486;52.502;13.486;2023-06-26T01:47:36;7.72;;;6.47;;
55609;SDS011;41486;52.502;13.486;2023-06-26T01:50:09;8.65;;;6.85;;
55609;SDS011;41486;52.502;13.486;2023-06-26T01:52:43;8.40;;;6.38;;
55609;SDS011;41486;52.502;13.486;2023-06-26T01:55:28;10.20;;;6.65;;
55609;SDS011;41486;52.502;13.486;2023-06-26T01:58:02;8.20;;;6.10;;
55609;SDS011;41486;52.502;13.486;2023-06-26T02:00:32;9.90;;;7.18;;
55609;SDS011;41486;52.502;13.486;2023-06-26T02:03:03;9.55;;;6.72;;
55609;SDS011;41486;52.502;13.486;2023-06-26T02:05:32;7.90;;;6.95;;
55609;SDS011;41486;52.502;13.486;2023-06-26T02:08:02;8.90;;;6.80;;
55609;SDS011;41486;52.502;13.486;2023-06-26T02:10:31;7.82;;;6.90;;
55609;SDS011;41486;52.502;13.486;2023-06-26T02:12:59;7.88;;;6.80;;
55609;SDS011;41486;52.502;13.486;2023-06-26T02:15:27;8.90;;;7.32;;
55609;SDS011;41486;52.502;13.486;2023-06-26T02:17:57;9.32;;;7.22;;
55609;SDS011;41486;52.502;13.486;2023-06-26T02:20:25;8.63;;;6.80;;
55609;SDS011;41486;52.502;13.486;2023-06-26T02:22:54;8.20;;;7.22;;
55609;SDS011;41486;52.502;13.486;2023-06-26T02:25:22;8.57;;;7.15;;
55609;SDS011;41486;52.502;13.486;2023-06-26T02:27:52;8.63;;;7.35;;
55609;SDS011;41486;52.502;13.486;2023-06-26T02:30:21;9.98;;;7.05;;
55609;SDS011;41486;52.502;13.486;2023-06-26T02:32:50;10.20;;;7.03;;
55609;SDS011;41486;52.502;13.486;2023-06-26T02:35:20;8.45;;;7.00;;
55609;SDS011;41486;52.502;13.486;2023-06-26T02:37:48;9.50;;;7.60;;
55609;SDS011;41486;52.502;13.486;2023-06-26T02:40:16;7.97;;;7.18;;
55609;SDS011;41486;52.502;13.486;2023-06-26T02:42:44;10.35;;;7.05;;
55609;SDS011;41486;52.502;13.486;2023-06-26T02:45:13;8.65;;;7.10;;
55609;SDS011;41486;52.502;13.486;2023-06-26T02:47:42;9.35;;;7.78;;
55609;SDS011;41486;52.502;13.486;2023-06-26T02:50:11;8.10;;;6.97;;
55609;SDS011;41486;52.502;13.486;2023-06-26T02:53:00;9.02;;;7.70;;
55609;SDS011;41486;52.502;13.486;2023-06-26T02:55:29;9.60;;;7.97;;
55609;SDS011;41486;52.502;13.486;2023-06-26T02:57:57;8.23;;;6.82;;
55609;SDS011;41486;52.502;13.486;2023-06-26T03:00:25;8.18;;;7.05;;
55609;SDS011;41486;52.502;13.486;2023-06-26T03:02:57;10.07;;;8.18;;
55609;SDS011;41486;52.502;13.486;2023-06-26T03:05:26;8.50;;;7.47;;
55609;SDS011;41486;52.502;13.486;2023-06-26T03:07:54;9.75;;;8.15;;
55609;SDS011;41486;52.502;13.486;2023-06-26T03:10:27;8.68;;;7.60;;
55609;SDS011;41486;52.502;13.486;2023-06-26T03:12:55;9.73;;;7.85;;
55609;SDS011;41486;52.502;13.486;2023-06-26T03:15:23;10.32;;;8.85;;
55609;SDS011;41486;52.502;13.486;2023-06-26T03:17:51;8.82;;;7.90;;
55609;SDS011;41486;52.502;13.486;2023-06-26T03:20:24;12.27;;;9.60;;
55609;SDS011;41486;52.502;13.486;2023-06-26T03:22:54;10.95;;;8.23;;
55609;SDS011;41486;52.502;13.486;2023-06-26T03:25:22;10.57;;;8.32;;
55609;SDS011;41486;52.502;13.486;2023-06-26T03:28:03;9.40;;;8.10;;
55609;SDS011;41486;52.502;13.486;2023-06-26T03:30:33;9.60;;;8.07;;
55609;SDS011;41486;52.502;13.486;2023-06-26T03:33:01;9.93;;;8.32;;
55609;SDS011;41486;52.502;13.486;2023-06-26T03:35:30;11.90;;;8.57;;
55609;SDS011;41486;52.502;13.486;2023-06-26T03:37:58;9.88;;;8.57;;
55609;SDS011;41486;52.502;13.486;2023-06-26T03:40:27;10.23;;;8.80;;
55609;SDS011;41486;52.502;13.486;2023-06-26T03:42:56;12.13;;;9.38;;
55609;SDS011;41486;52.502;13.486;2023-06-26T03:45:26;9.88;;;8.40;;
55609;SDS011;41486;52.502;13.486;2023-06-26T03:47:55;11.43;;;7.72;;
55609;SDS011;41486;52.502;13.486;2023-06-26T03:50:23;10.82;;;8.88;;
55609;SDS011;41486;52.502;13.486;2023-06-26T03:52:51;9.52;;;8.60;;
55609;SDS011;41486;52.502;13.486;2023-06-26T03:55:21;10.23;;;8.73;;
55609;SDS011;41486;52.502;13.486;2023-06-26T03:57:50;11.68;;;9.55;;
55609;SDS011;41486;52.502;13.486;2023-06-26T04:00:18;12.73;;;8.82;;
55609;SDS011;41486;52.502;13.486;2023-06-26T04:02:51;9.88;;;8.18;;
55609;SDS011;41486;52.502;13.486;2023-06-26T04:05:19;8.55;;;7.65;;
55609;SDS011;41486;52.502;13.486;2023-06-26T04:07:50;10.55;;;8.18;;
55609;SDS011;41486;52.502;13.486;2023-06-26T04:10:18;10.18;;;8.88;;
55609;SDS011;41486;52.502;13.486;2023-06-26T04:12:47;10.38;;;8.27;;
55609;SDS011;41486;52.502;13.486;2023-06-26T04:15:15;10.30;;;9.02;;
55609;SDS011;41486;52.502;13.486;2023-06-26T04:17:43;11.10;;;9.90;;
55609;SDS011;41486;52.502;13.486;2023-06-26T04:20:13;12.23;;;9.55;;
55609;SDS011;41486;52.502;13.486;2023-06-26T04:22:45;11.07;;;9.90;;
55609;SDS011;41486;52.502;13.486;2023-06-26T04:25:14;12.15;;;8.70;;
55609;SDS011;41486;52.502;13.486;2023-06-26T04:27:45;10.10;;;8.40;;
55609;SDS011;41486;52.502;13.486;2023-06-26T04:30:13;15.50;;;10.02;;
55609;SDS011;41486;52.502;13.486;2023-06-26T04:32:42;8.50;;;7.60;;
55609;SDS011;41486;52.502;13.486;2023-06-26T04:35:15;11.73;;;8.23;;
55609;SDS011;41486;52.502;13.486;2023-06-26T04:37:47;10.45;;;8.00;;
55609;SDS011;41486;52.502;13.486;2023-06-26T04:40:16;12.05;;;8.15;;
55609;SDS011;41486;52.502;13.486;2023-06-26T04:42:47;10.07;;;8.35;;
55609;SDS011;41486;52.502;13.486;2023-06-26T04:45:15;9.63;;;8.63;;
55609;SDS011;41486;52.502;13.486;2023-06-26T04:47:45;9.82;;;8.35;;
55609;SDS011;41486;52.502;13.486;2023-06-26T04:50:14;15.13;;;8.88;;
55609;SDS011;41486;52.502;13.486;2023-06-26T04:52:45;13.00;;;7.78;;
55609;SDS011;41486;52.502;13.486;2023-06-26T04:55:13;13.68;;;7.63;;
55609;SDS011;41486;52.502;13.486;2023-06-26T04:57:41;9.27;;;7.78;;
55609;SDS011;41486;52.502;13.486;2023-06-26T05:00:09;8.70;;;7.38;;
55609;SDS011;41486;52.502;13.486;2023-06-26T05:02:38;10.93;;;8.00;;
55609;SDS011;41486;52.502;13.486;2023-06-26T05:05:07;14.93;;;8.85;;
55609;SDS011;41486;52.502;13.486;2023-06-26T05:07:37;12.05;;;8.15;;
55609;SDS011;41486;52.502;13.486;2023-06-26T05:10:05;8.48;;;7.47;;
55609;SDS011;41486;52.502;13.486;2023-06-26T05:12:34;13.43;;;8.75;;
55609;SDS011;41486;52.502;13.486;2023-06-26T05:15:03;11.73;;;8.10;;
55609;SDS011;41486;52.502;13.486;2023-06-26T05:17:31;12.90;;;8.40;;
55609;SDS011;41486;52.502;13.486;2023-06-26T05:19:59;10.10;;;8.52;;
55609;SDS011;41486;52.502;13.486;2023-06-26T05:22:28;10.73;;;8.43;;
55609;SDS011;41486;52.502;13.486;2023-06-26T05:24:59;11.10;;;7.65;;
55609;SDS011;41486;52.502;13.486;2023-06-26T05:27:28;15.23;;;8.35;;
55609;SDS011;41486;52.502;13.486;2023-06-26T05:29:57;9.43;;;8.00;;
55609;SDS011;41486;52.502;13.486;2023-06-26T05:32:28;9.45;;;7.95;;
55609;SDS011;41486;52.502;13.486;2023-06-26T05:34:58;11.32;;;8.30;;
55609;SDS011;41486;52.502;13.486;2023-06-26T05:37:28;9.98;;;8.07;;
55609;SDS011;41486;52.502;13.486;2023-06-26T05:40:00;13.35;;;8.18;;
55609;SDS011;41486;52.502;13.486;2023-06-26T05:42:30;17.77;;;8.55;;
55609;SDS011;41486;52.502;13.486;2023-06-26T05:44:59;10.25;;;7.70;;
55609;SDS011;41486;52.502;13.486;2023-06-26T05:47:27;11.65;;;7.43;;
55609;SDS011;41486;52.502;13.486;2023-06-26T05:49:55;9.43;;;7.20;;
55609;SDS011;41486;52.502;13.486;2023-06-26T05:52:24;8.75;;;7.63;;
55609;SDS011;41486;52.502;13.486;2023-06-26T05:54:52;8.32;;;7.40;;
55609;SDS011;41486;52.502;13.486;2023-06-26T05:57:25;8.43;;;7.53;;
55609;SDS011;41486;52.502;13.486;2023-06-26T05:59:57;9.48;;;7.07;;
55609;SDS011;41486;52.502;13.486;2023-06-26T06:02:26;7.70;;;6.90;;
55609;SDS011;41486;52.502;13.486;2023-06-26T06:04:56;10.18;;;7.53;;
55609;SDS011;41486;52.502;13.486;2023-06-26T06:07:26;7.80;;;6.80;;
55609;SDS011;41486;52.502;13.486;2023-06-26T06:09:54;10.95;;;7.22;;
55609;SDS011;41486;52.502;13.486;2023-06-26T06:12:22;9.65;;;7.63;;
55609;SDS011;41486;52.502;13.486;2023-06-26T06:14:52;9.10;;;6.07;;
55609;SDS011;41486;52.502;13.486;2023-06-26T06:17:20;7.22;;;6.47;;
55609;SDS011;41486;52.502;13.486;2023-06-26T06:19:48;9.15;;;7.07;;
55609;SDS011;41486;52.502;13.486;2023-06-26T06:22:16;8.38;;;6.13;;
55609;SDS011;41486;52.502;13.486;2023-06-26T06:24:44;9.43;;;6.38;;
55609;SDS011;41486;52.502;13.486;2023-06-26T06:27:13;8.52;;;7.07;;
55609;SDS011;41486;52.502;13.486;2023-06-26T06:29:42;9.25;;;6.28;;
55609;SDS011;41486;52.502;13.486;2023-06-26T06:32:11;7.18;;;6.00;;
55609;SDS011;41486;52.502;13.486;2023-06-26T06:34:39;6.82;;;6.13;;
55609;SDS011;41486;52.502;13.486;2023-06-26T06:37:07;6.93;;;4.90;;
55609;SDS011;41486;52.502;13.486;2023-06-26T06:39:35;8.23;;;6.53;;
55609;SDS011;41486;52.502;13.486;2023-06-26T06:42:04;9.50;;;6.63;;
55609;SDS011;41486;52.502;13.486;2023-06-26T06:44:32;6.05;;;5.03;;
55609;SDS011;41486;52.502;13.486;2023-06-26T06:47:00;7.78;;;5.30;;
55609;SDS011;41486;52.502;13.486;2023-06-26T06:49:29;7.93;;;5.03;;
55609;SDS011;41486;52.502;13.486;2023-06-26T06:51:57;7.05;;;5.03;;
55609;SDS011;41486;52.502;13.486;2023-06-26T06:54:25;6.10;;;5.22;;
55609;SDS011;41486;52.502;13.486;2023-06-26T06:56:54;6.70;;;4.95;;
55609;SDS011;41486;52.502;13.486;2023-06-26T06:59:22;7.45;;;5.10;;
55609;SDS011;41486;52.502;13.486;2023-06-26T07:01:50;8.15;;;5.65;;
55609;SDS011;41486;52.502;13.486;2023-06-26T07:04:18;6.07;;;5.22;;
55609;SDS011;41486;52.502;13.486;2023-06-26T07:06:47;7.95;;;4.93;;
55609;SDS011;41486;52.502;13.486;2023-06-26T07:09:16;6.20;;;4.55;;
55609;SDS011;41486;52.502;13.486;2023-06-26T07:11:44;6.25;;;5.00;;
55609;SDS011;41486;52.502;13.486;2023-06-26T07:14:12;6.00;;;5.13;;
55609;SDS011;41486;52.502;13.486;2023-06-26T07:16:40;5.47;;;4.47;;
55609;SDS011;41486;52.502;13.486;2023-06-26T07:19:08;6.15;;;4.80;;
55609;SDS011;41486;52.502;13.486;2023-06-26T07:21:37;5.55;;;4.95;;
55609;SDS011;41486;52.502;13.486;2023-06-26T07:24:06;7.18;;;5.22;;
55609;SDS011;41486;52.502;13.486;2023-06-26T07:26:34;6.97;;;5.82;;
55609;SDS011;41486;52.502;13.486;2023-06-26T07:29:12;7.57;;;4.93;;
55609;SDS011;41486;52.502;13.486;2023-06-26T07:31:40;10.55;;;4.35;;
55609;SDS011;41486;52.502;13.486;2023-06-26T07:34:08;4.57;;;3.88;;
55609;SDS011;41486;52.502;13.486;2023-06-26T07:36:36;4.68;;;3.88;;
55609;SDS011;41486;52.502;13.486;2023-06-26T07:39:04;6.22;;;4.40;;
55609;SDS011;41486;52.502;13.486;2023-06-26T07:41:34;6.32;;;5.13;;
55609;SDS011;41486;52.502;13.486;2023-06-26T07:44:02;6.28;;;4.30;;
55609;SDS011;41486;52.502;13.486;2023-06-26T07:46:31;6.97;;;4.22;;
55609;SDS011;41486;52.502;13.486;2023-06-26T07:48:59;5.15;;;4.40;;
55609;SDS011;41486;52.502;13.486;2023-06-26T07:51:27;5.55;;;3.83;;
55609;SDS011;41486;52.502;13.486;2023-06-26T07:53:55;5.38;;;4.20;;
55609;SDS011;41486;52.502;13.486;2023-06-26T07:56:23;5.90;;;3.53;;
55609;SDS011;41486;52.502;13.486;2023-06-26T07:58:52;4.22;;;3.45;;
55609;SDS011;41486;52.502;13.486;2023-06-26T08:01:20;3.55;;;3.22;;
55609;SDS011;41486;52.502;13.486;2023-06-26T08:03:48;4.47;;;3.95;;
55609;SDS011;41486;52.502;13.486;2023-06-26T08:06:17;6.97;;;3.72;;
55609;SDS011;41486;52.502;13.486;2023-06-26T08:08:45;4.55;;;3.33;;
55609;SDS011;41486;52.502;13.486;2023-06-26T08:11:13;4.10;;;3.28;;
55609;SDS011;41486;52.502;13.486;2023-06-26T08:13:41;4.32;;;3.00;;
55609;SDS011;41486;52.502;13.486;2023-06-26T08:16:10;4.35;;;3.13;;
55609;SDS011;41486;52.502;13.486;2023-06-26T08:18:38;5.10;;;3.05;;
55609;SDS011;41486;52.502;13.486;2023-06-26T08:21:07;3.05;;;2.72;;
55609;SDS011;41486;52.502;13.486;2023-06-26T08:23:36;4.75;;;3.30;;
55609;SDS011;41486;52.502;13.486;2023-06-26T08:26:04;3.63;;;2.97;;
55609;SDS011;41486;52.502;13.486;2023-06-26T08:28:32;4.40;;;2.78;;
55609;SDS011;41486;52.502;13.486;2023-06-26T08:31:00;3.72;;;3.00;;
55609;SDS011;41486;52.502;13.486;2023-06-26T08:33:29;5.32;;;4.00;;
55609;SDS011;41486;52.502;13.486;2023-06-26T08:35:57;5.72;;;3.70;;
55609;SDS011;41486;52.502;13.486;2023-06-26T08:38:25;7.20;;;3.72;;
55609;SDS011;41486;52.502;13.486;2023-06-26T08:40:53;6.25;;;3.15;;
55609;SDS011;41486;52.502;13.486;2023-06-26T08:43:22;4.25;;;3.65;;
55609;SDS011;41486;52.502;13.486;2023-06-26T08:45:50;3.08;;;2.45;;
55609;SDS011;41486;52.502;13.486;2023-06-26T08:48:18;2.92;;;2.40;;
55609;SDS011;41486;52.502;13.486;2023-06-26T08:50:51;9.98;;;2.45;;
55609;SDS011;41486;52.502;13.486;2023-06-26T08:53:21;4.65;;;2.55;;
55609;SDS011;41486;52.502;13.486;2023-06-26T08:55:57;4.97;;;2.05;;
55609;SDS011;41486;52.502;13.486;2023-06-26T08:58:26;4.07;;;2.67;;
55609;SDS011;41486;52.502;13.486;2023-06-26T09:00:57;3.10;;;2.58;;
55609;SDS011;41486;52.502;13.486;2023-06-26T09:03:26;2.53;;;2.17;;
55609;SDS011;41486;52.502;13.486;2023-06-26T09:05:56;2.88;;;2.30;;
55609;SDS011;41486;52.502;13.486;2023-06-26T09:08:25;2.50;;;2.28;;
55609;SDS011;41486;52.502;13.486;2023-06-26T09:10:53;4.85;;;2.30;;
55609;SDS011;41486;52.502;13.486;2023-06-26T09:13:21;5.45;;;3.78;;
55609;SDS011;41486;52.502;13.486;2023-06-26T09:15:56;3.42;;;2.50;;
55609;SDS011;41486;52.502;13.486;2023-06-26T09:18:24;4.18;;;2.50;;
55609;SDS011;41486;52.502;13.486;2023-06-26T09:20:53;3.42;;;2.70;;
55609;SDS011;41486;52.502;13.486;2023-06-26T09:23:23;4.82;;;2.92;;
55609;SDS011;41486;52.502;13.486;2023-06-26T09:25:52;4.78;;;2.67;;
55609;SDS011;41486;52.502;13.486;2023-06-26T09:28:20;2.72;;;2.38;;
55609;SDS011;41486;52.502;13.486;2023-06-26T09:30:48;3.30;;;2.67;;
55609;SDS011;41486;52.502;13.486;2023-06-26T09:33:18;3.42;;;2.47;;
55609;SDS011;41486;52.502;13.486;2023-06-26T09:35:48;4.60;;;2.10;;
55609;SDS011;41486;52.502;13.486;2023-06-26T09:38:16;2.70;;;2.22;;
55609;SDS011;41486;52.502;13.486;2023-06-26T09:40:46;3.38;;;2.25;;
55609;SDS011;41486;52.502;13.486;2023-06-26T09:43:14;3.35;;;2.55;;
55609;SDS011;41486;52.502;13.486;2023-06-26T09:45:43;3.38;;;2.28;;
55609;SDS011;41486;52.502;13.486;2023-06-26T09:48:11;3.95;;;2.30;;
55609;SDS011;41486;52.502;13.486;2023-06-26T09:50:41;4.10;;;2.95;;
55609;SDS011;41486;52.502;13.486;2023-06-26T09:53:26;2.42;;;2.22;;
55609;SDS011;41486;52.502;13.486;2023-06-26T09:55:57;4.45;;;2.80;;
55609;SDS011;41486;52.502;13.486;2023-06-26T09:58:25;2.95;;;2.15;;
55609;SDS011;41486;52.502;13.486;2023-06-26T10:00:55;3.10;;;2.45;;
55609;SDS011;41486;52.502;13.486;2023-06-26T10:03:23;2.90;;;2.38;;
55609;SDS011;41486;52.502;13.486;2023-06-26T10:05:52;3.28;;;2.97;;
55609;SDS011;41486;52.502;13.486;2023-06-26T10:08:20;6.03;;;2.85;;
55609;SDS011;41486;52.502;13.486;2023-06-26T10:10:49;3.70;;;2.83;;
55609;SDS011;41486;52.502;13.486;2023-06-26T10:13:20;2.78;;;2.20;;
55609;SDS011;41486;52.502;13.486;2023-06-26T10:15:50;3.33;;;2.60;;
55609;SDS011;41486;52.502;13.486;2023-06-26T10:18:21;3.58;;;2.60;;
55609;SDS011;41486;52.502;13.486;2023-06-26T10:20:53;3.55;;;2.55;;
55609;SDS011;41486;52.502;13.486;2023-06-26T10:23:24;4.97;;;2.28;;
55609;SDS011;41486;52.502;13.486;2023-06-26T10:25:55;6.30;;;2.60;;
55609;SDS011;41486;52.502;13.486;2023-06-26T10:28:30;5.00;;;2.92;;
55609;SDS011;41486;52.502;13.486;2023-06-26T10:31:03;4.43;;;2.80;;
55609;SDS011;41486;52.502;13.486;2023-06-26T10:33:34;3.10;;;2.67;;
55609;SDS011;41486;52.502;13.486;2023-06-26T10:36:13;4.93;;;2.70;;
55609;SDS011;41486;52.502;13.486;2023-06-26T10:38:48;5.20;;;2.60;;
55609;SDS011;41486;52.502;13.486;2023-06-26T10:41:19;3.47;;;2.55;;
55609;SDS011;41486;52.502;13.486;2023-06-26T10:43:51;4.13;;;2.63;;
55609;SDS011;41486;52.502;13.486;2023-06-26T10:46:33;4.25;;;2.63;;
55609;SDS011;41486;52.502;13.486;2023-06-26T10:49:04;2.92;;;2.25;;
55609;SDS011;41486;52.502;13.486;2023-06-26T10:51:33;2.50;;;2.15;;
55609;SDS011;41486;52.502;13.486;2023-06-26T10:54:01;3.00;;;2.67;;
55609;SDS011;41486;52.502;13.486;2023-06-26T10:56:42;2.33;;;2.05;;
55609;SDS011;41486;52.502;13.486;2023-06-26T10:59:14;3.15;;;2.33;;
55609;SDS011;41486;52.502;13.486;2023-06-26T11:01:45;3.20;;;2.83;;
55609;SDS011;41486;52.502;13.486;2023-06-26T11:04:35;3.40;;;2.67;;
55609;SDS011;41486;52.502;13.486;2023-06-26T11:07:14;2.90;;;1.60;;
55609;SDS011;41486;52.502;13.486;2023-06-26T11:09:54;2.25;;;2.03;;
55609;SDS011;41486;52.502;13.486;2023-06-26T11:12:35;2.30;;;2.10;;
55609;SDS011;41486;52.502;13.486;2023-06-26T11:15:11;4.63;;;2.23;;
55609;SDS011;41486;52.502;13.486;2023-06-26T11:17:40;2.47;;;2.05;;
55609;SDS011;41486;52.502;13.486;2023-06-26T11:20:10;3.67;;;2.20;;
55609;SDS011;41486;52.502;13.486;2023-06-26T11:22:42;3.72;;;2.17;;
55609;SDS011;41486;52.502;13.486;2023-06-26T11:25:11;2.97;;;2.25;;
55609;SDS011;41486;52.502;13.486;2023-06-26T11:27:39;2.47;;;2.25;;
55609;SDS011;41486;52.502;13.486;2023-06-26T11:30:10;2.83;;;2.60;;
55609;SDS011;41486;52.502;13.486;2023-06-26T11:32:39;3.25;;;2.55;;
55609;SDS011;41486;52.502;13.486;2023-06-26T11:35:08;2.85;;;2.20;;
55609;SDS011;41486;52.502;13.486;2023-06-26T11:37:37;2.63;;;2.42;;
55609;SDS011;41486;52.502;13.486;2023-06-26T11:40:17;2.83;;;2.50;;
55609;SDS011;41486;52.502;13.486;2023-06-26T11:42:46;2.70;;;2.47;;
55609;SDS011;41486;52.502;13.486;2023-06-26T11:45:15;3.45;;;2.40;;
55609;SDS011;41486;52.502;13.486;2023-06-26T11:47:44;4.90;;;2.63;;
55609;SDS011;41486;52.502;13.486;2023-06-26T11:50:14;2.95;;;2.20;;
55609;SDS011;41486;52.502;13.486;2023-06-26T11:52:44;4.20;;;2.78;;
55609;SDS011;41486;52.502;13.486;2023-06-26T11:55:12;3.70;;;2.33;;
55609;SDS011;41486;52.502;13.486;2023-06-26T11:57:42;4.15;;;2.78;;
55609;SDS011;41486;52.502;13.486;2023-06-26T12:00:10;3.35;;;2.97;;
55609;SDS011;41486;52.502;13.486;2023-06-26T12:02:40;3.53;;;2.53;;
55609;SDS011;41486;52.502;13.486;2023-06-26T12:05:09;3.10;;;2.80;;
55609;SDS011;41486;52.502;13.486;2023-06-26T12:07:38;4.07;;;2.40;;
55609;SDS011;41486;52.502;13.486;2023-06-26T12:10:07;3.35;;;2.30;;
55609;SDS011;41486;52.502;13.486;2023-06-26T12:12:38;5.28;;;2.65;;
55609;SDS011;41486;52.502;13.486;2023-06-26T12:15:07;4.00;;;2.15;;
55609;SDS011;41486;52.502;13.486;2023-06-26T12:17:37;3.38;;;2.42;;
55609;SDS011;41486;52.502;13.486;2023-06-26T12:20:18;3.28;;;2.70;;
55609;SDS011;41486;52.502;13.486;2023-06-26T12:22:48;2.33;;;2.10;;
55609;SDS011;41486;52.502;13.486;2023-06-26T12:25:20;3.42;;;2.78;;
55609;SDS011;41486;52.502;13.486;2023-06-26T12:27:50;3.40;;;2.58;;
55609;SDS011;41486;52.502;13.486;2023-06-26T12:30:18;3.17;;;2.53;;
55609;SDS011;41486;52.502;13.486;2023-06-26T12:32:46;3.33;;;2.60;;
55609;SDS011;41486;52.502;13.486;2023-06-26T12:35:14;3.45;;;2.60;;
55609;SDS011;41486;52.502;13.486;2023-06-26T12:37:44;5.03;;;2.55;;
55609;SDS011;41486;52.502;13.486;2023-06-26T12:40:16;3.08;;;2.70;;
55609;SDS011;41486;52.502;13.486;2023-06-26T12:42:45;2.80;;;2.45;;
55609;SDS011;41486;52.502;13.486;2023-06-26T12:45:13;3.50;;;2.70;;
55609;SDS011;41486;52.502;13.486;2023-06-26T12:48:06;2.78;;;2.47;;
55609;SDS011;41486;52.502;13.486;2023-06-26T12:50:37;2.60;;;2.40;;
55609;SDS011;41486;52.502;13.486;2023-06-26T12:53:08;3.53;;;3.05;;
55609;SDS011;41486;52.502;13.486;2023-06-26T12:55:36;5.75;;;2.88;;
55609;SDS011;41486;52.502;13.486;2023-06-26T12:58:04;3.08;;;2.42;;
55609;SDS011;41486;52.502;13.486;2023-06-26T13:00:35;6.50;;;3.40;;
55609;SDS011;41486;52.502;13.486;2023-06-26T13:03:04;4.43;;;2.55;;
55609;SDS011;41486;52.502;13.486;2023-06-26T13:05:37;3.42;;;2.58;;
55609;SDS011;41486;52.502;13.486;2023-06-26T13:08:05;3.00;;;2.38;;
55609;SDS011;41486;52.502;13.486;2023-06-26T13:10:34;3.08;;;2.65;;
55609;SDS011;41486;52.502;13.486;2023-06-26T13:13:03;3.42;;;3.05;;
55609;SDS011;41486;52.502;13.486;2023-06-26T13:15:31;3.63;;;3.08;;
55609;SDS011;41486;52.502;13.486;2023-06-26T13:17:59;3.13;;;2.83;;
55609;SDS011;41486;52.502;13.486;2023-06-26T13:20:27;4.10;;;2.63;;
55609;SDS011;41486;52.502;13.486;2023-06-26T13:22:55;4.25;;;3.85;;
55609;SDS011;41486;52.502;13.486;2023-06-26T13:25:23;5.78;;;3.15;;
55609;SDS011;41486;52.502;13.486;2023-06-26T13:27:53;4.63;;;3.40;;
55609;SDS011;41486;52.502;13.486;2023-06-26T13:30:21;4.03;;;3.50;;
55609;SDS011;41486;52.502;13.486;2023-06-26T13:32:50;3.65;;;2.88;;
55609;SDS011;41486;52.502;13.486;2023-06-26T13:35:19;3.47;;;2.90;;
55609;SDS011;41486;52.502;13.486;2023-06-26T13:37:47;3.83;;;2.80;;
55609;SDS011;41486;52.502;13.486;2023-06-26T13:40:15;3.47;;;2.92;;
55609;SDS011;41486;52.502;13.486;2023-06-26T13:42:44;5.00;;;2.97;;
55609;SDS011;41486;52.502;13.486;2023-06-26T13:45:14;3.75;;;2.97;;
55609;SDS011;41486;52.502;13.486;2023-06-26T13:47:56;4.68;;;3.00;;
55609;SDS011;41486;52.502;13.486;2023-06-26T13:50:25;4.70;;;3.10;;
55609;SDS011;41486;52.502;13.486;2023-06-26T13:53:03;4.97;;;3.60;;
55609;SDS011;41486;52.502;13.486;2023-06-26T13:55:32;3.80;;;3.03;;
55609;SDS011;41486;52.502;13.486;2023-06-26T13:58:01;6.75;;;3.78;;
55609;SDS011;41486;52.502;13.486;2023-06-26T14:00:33;6.93;;;4.30;;
55609;SDS011;41486;52.502;13.486;2023-06-26T14:03:03;4.90;;;3.67;;
55609;SDS011;41486;52.502;13.486;2023-06-26T14:05:33;4.25;;;3.42;;
55609;SDS011;41486;52.502;13.486;2023-06-26T14:08:02;5.05;;;3.20;;
55609;SDS011;41486;52.502;13.486;2023-06-26T14:10:31;4.22;;;3.30;;
55609;SDS011;41486;52.502;13.486;2023-06-26T14:13:00;6.47;;;3.08;;
55609;SDS011;41486;52.502;13.486;2023-06-26T14:15:30;5.00;;;3.20;;
55609;SDS011;41486;52.502;13.486;2023-06-26T14:18:00;3.75;;;3.13;;
55609;SDS011;41486;52.502;13.486;2023-06-26T14:20:29;5.78;;;3.17;;
55609;SDS011;41486;52.502;13.486;2023-06-26T14:22:59;4.10;;;3.00;;
55609;SDS011;41486;52.502;13.486;2023-06-26T14:25:27;3.80;;;3.00;;
55609;SDS011;41486;52.502;13.486;2023-06-26T14:27:55;5.60;;;3.25;;
55609;SDS011;41486;52.502;13.486;2023-06-26T14:30:24;20.75;;;4.57;;
55609;SDS011;41486;52.502;13.486;2023-06-26T14:32:52;9.75;;;3.55;;
55609;SDS011;41486;52.502;13.486;2023-06-26T14:35:22;6.10;;;2.65;;
55609;SDS011;41486;52.502;13.486;2023-06-26T14:37:50;8.85;;;3.20;;
55609;SDS011;41486;52.502;13.486;2023-06-26T14:40:19;5.60;;;3.63;;
55609;SDS011;41486;52.502;13.486;2023-06-26T14:42:47;10.07;;;3.83;;
55609;SDS011;41486;52.502;13.486;2023-06-26T14:45:16;7.10;;;4.80;;
55609;SDS011;41486;52.502;13.486;2023-06-26T14:47:44;7.15;;;4.80;;